Time;durP1;ratioP1;P1;durP2;ratioP2;P2;SDS_P1;SDS_P2;PMS_P1;PMS_P2;Temp;Humidity;BMP_temperature;BMP_pressure;BME280_temperature;BME280_humidity;BME280_pressure;Samples;Min_cycle;Max_cycle;Signal;HPM_P1;HPM_P2
2021/09/26 21:17:33;;;;;;;;;;;;;;;14.82;80.03;100776.90;1390605;86;20317;31
2021/09/26 21:20:08;;;;;;;;;;;;;;;14.75;80.33;100777.22;1391698;86;20343;31
2021/09/26 21:25:09;;;;;;;;;;;;;;;14.62;80.47;100768.91;1405102;85;20325;31
2021/09/26 21:32:37;;;;;;;;;;;;;;;14.52;82.37;100766.88;1406945;84;20350;31
2021/09/26 21:35:06;;;;;;;;;;;;;;;14.50;82.82;100770.17;1403049;85;20326;31
2021/09/26 21:37:35;;;;;;;;;;;;;;;14.49;81.83;100774.67;1415961;85;20347;31
2021/09/26 21:42:46;;;;;;;;;;;;;;;14.43;80.51;100774.83;1424588;86;20237;-93
2021/09/26 21:45:14;;;;;;;;;;;;;;;14.39;80.25;100773.50;1418849;87;20170;-94
2021/09/26 21:47:47;;;;;;;;;;;;;;;14.33;80.60;100778.16;1418658;87;20333;-93
2021/09/26 21:50:17;;;;;;;;;;;;;;;14.25;80.54;100770.14;1376873;85;21124;-92
2021/09/26 21:52:46;;;;;;;;;;;;;;;14.19;80.12;100770.30;1352007;91;20792;-92
2021/09/26 21:55:15;;;;;;;;;;;;;;;14.14;80.32;100766.45;1340093;91;20266;-92
2021/09/26 21:57:42;;;;;;;;;;;;;;;14.03;79.88;100764.09;1332247;93;20304;-92
2021/09/26 22:00:18;;;;;;;;;;;;;;;13.95;79.68;100763.09;1336199;92;20364;-91
2021/09/26 22:02:45;;;;;;;;;;;;;;;13.87;80.47;100759.06;1344704;91;20282;-94
2021/09/26 22:05:12;;;;;;;;;;;;;;;13.82;81.10;100765.36;1353325;92;20256;-94
2021/09/26 22:07:39;;;;;;;;;;;;;;;13.82;81.17;100763.20;1364543;88;20220;-94
2021/09/26 22:10:07;;;;;;;;;;;;;;;13.80;81.46;100767.34;1378678;85;20347;-89
2021/09/26 22:15:05;;;;;;;;;;;;;;;13.76;82.78;100759.35;1417226;86;20224;-92
2021/09/26 22:17:32;;;;;;;;;;;;;;;13.72;82.98;100751.34;1405479;88;20238;-91
2021/09/26 22:19:59;;;;;;;;;;;;;;;13.71;82.86;100751.02;1405649;88;20253;-92
2021/09/26 22:22:26;;;;;;;;;;;;;;;13.68;82.83;100749.50;1417043;88;20301;-91
2021/09/26 22:24:53;;;;;;;;;;;;;;;13.66;83.41;100747.48;1445619;85;20762;-92
2021/09/26 22:27:20;;;;;;;;;;;;;;;13.63;83.63;100749.64;1446223;85;20241;-91
2021/09/26 22:29:47;;;;;;;;;;;;;;;13.58;83.58;100747.48;1445264;85;20235;-92
2021/09/26 22:32:14;;;;;;;;;;;;;;;13.54;83.90;100750.10;1446315;85;20324;-91
2021/09/26 22:37:11;;;;;;;;;;;;;;;13.46;84.66;100742.91;1408205;84;20314;-90
2021/09/26 22:39:39;;;;;;;;;;;;;;;13.43;84.56;100748.55;1379257;86;20303;31
2021/09/26 22:42:08;;;;;;;;;;;;;;;13.43;84.23;100753.86;1413861;85;20310;31
2021/09/26 22:44:35;;;;;;;;;;;;;;;13.41;84.37;100753.20;1407090;84;20274;-94
2021/09/26 22:49:35;;;;;;;;;;;;;;;13.48;84.56;100758.22;1407089;86;20994;31
2021/09/26 22:52:04;;;;;;;;;;;;;;;13.48;84.98;100756.88;1389312;86;20423;31
2021/09/26 22:54:32;;;;;;;;;;;;;;;13.47;84.50;100753.91;1378074;88;20466;-94
2021/09/26 22:57:01;;;;;;;;;;;;;;;13.44;84.70;100749.41;1406473;85;21034;31
2021/09/26 22:59:31;;;;;;;;;;;;;;;13.40;84.55;100752.84;1421732;85;20472;31
2021/09/26 23:01:59;;;;;;;;;;;;;;;13.34;84.41;100740.20;1389566;86;20241;-93
2021/09/26 23:04:26;;;;;;;;;;;;;;;13.28;84.16;100736.84;1383444;89;20256;-90
2021/09/26 23:06:53;;;;;;;;;;;;;;;13.23;84.46;100736.44;1383083;89;20725;-91
2021/09/26 23:09:20;;;;;;;;;;;;;;;13.20;84.80;100742.08;1383874;89;20248;-91
2021/09/26 23:11:47;;;;;;;;;;;;;;;13.16;85.59;100740.73;1381959;89;20256;-90
2021/09/26 23:14:14;;;;;;;;;;;;;;;13.14;86.48;100739.55;1382814;89;20233;-90
2021/09/26 23:16:41;;;;;;;;;;;;;;;13.15;86.58;100740.38;1383075;89;20272;-92
2021/09/26 23:19:07;;;;;;;;;;;;;;;13.14;87.15;100738.72;1383681;89;20330;-91
2021/09/26 23:21:36;;;;;;;;;;;;;;;13.13;88.07;100738.39;1384637;89;20843;-90
2021/09/26 23:24:03;;;;;;;;;;;;;;;13.13;87.07;100737.06;1383907;89;20234;-90
2021/09/26 23:26:31;;;;;;;;;;;;;;;13.12;87.17;100745.53;1365343;90;20249;-91
2021/09/26 23:28:58;;;;;;;;;;;;;;;13.12;86.27;100740.69;1384881;89;20308;-91
2021/09/26 23:31:25;;;;;;;;;;;;;;;13.11;84.90;100735.87;1386063;89;20786;-92
2021/09/26 23:33:52;;;;;;;;;;;;;;;13.12;85.13;100740.22;1385485;89;20256;-92
2021/09/26 23:36:19;;;;;;;;;;;;;;;13.08;85.46;100740.17;1384854;89;20219;-91
2021/09/26 23:38:47;;;;;;;;;;;;;;;13.03;85.76;100738.00;1383471;89;20319;-91
2021/09/26 23:41:16;;;;;;;;;;;;;;;13.03;85.03;100735.81;1382332;89;20234;-91
2021/09/26 23:43:46;;;;;;;;;;;;;;;13.01;84.56;100729.34;1382876;89;20241;-89
2021/09/26 23:46:16;;;;;;;;;;;;;;;12.96;85.99;100730.80;1381733;89;20234;-91
2021/09/26 23:48:43;;;;;;;;;;;;;;;12.91;85.24;100723.28;1381364;89;20226;-90
2021/09/26 23:51:10;;;;;;;;;;;;;;;12.90;84.84;100724.28;1382320;89;20867;-90
2021/09/26 23:53:38;;;;;;;;;;;;;;;12.90;84.44;100719.47;1380265;89;20212;-89
2021/09/26 23:56:05;;;;;;;;;;;;;;;12.89;84.82;100721.30;1381846;88;20263;-89
2021/09/26 23:58:32;;;;;;;;;;;;;;;12.85;85.78;100722.58;1382201;89;20242;-90
